Time;durP1;ratioP1;P1;durP2;ratioP2;P2;SDS_P1;SDS_P2;PMS_P1;PMS_P2;Temp;Humidity;BMP_temperature;BMP_pressure;BME280_temperature;BME280_humidity;BME280_pressure;Samples;Min_cycle;Max_cycle;Signal;HPM_P1;HPM_P2
2021/12/03 00:01:11;;;;;;;4.07;0.60;;;;;;;3.75;100.00;100963.16;5067465;28;20744;-33
2021/12/03 00:03:40;;;;;;;8.63;0.80;;;;;;;3.75;100.00;100963.16;5070549;28;20575;-39
2021/12/03 00:06:08;;;;;;;6.70;0.95;;;;;;;3.76;100.00;100952.97;5070791;28;20045;-33
2021/12/03 00:08:36;;;;;;;3.75;0.47;;;;;;;3.78;100.00;100959.06;5070565;28;20191;-35
2021/12/03 00:11:04;;;;;;;8.55;0.82;;;;;;;3.78;100.00;100962.66;5070732;28;20057;-34
2021/12/03 00:13:34;;;;;;;7.45;0.77;;;;;;;3.79;100.00;100956.06;5070646;28;20131;-39
2021/12/03 00:16:03;;;;;;;5.57;0.50;;;;;;;3.81;100.00;100964.06;5069862;28;20047;-37
2021/12/03 00:18:33;;;;;;;3.90;0.60;;;;;;;3.81;100.00;100958.53;5070632;28;20427;-37
2021/12/03 00:21:04;;;;;;;5.35;0.68;;;;;;;3.83;100.00;100966.56;5070645;28;20040;-37
2021/12/03 00:23:32;;;;;;;4.65;0.68;;;;;;;3.85;100.00;100959.72;5070242;28;20061;-31
2021/12/03 00:26:01;;;;;;;5.25;0.80;;;;;;;3.87;100.00;100962.22;5070460;28;20051;-36
2021/12/03 00:28:30;;;;;;;4.47;0.70;;;;;;;3.91;100.00;100963.41;5070279;28;20047;-34
2021/12/03 00:30:58;;;;;;;4.45;0.70;;;;;;;3.91;100.00;100963.41;5069972;28;20048;-30
2021/12/03 00:33:28;;;;;;;4.55;0.80;;;;;;;3.92;100.00;100970.59;5070470;28;20048;-35
2021/12/03 00:35:59;;;;;;;4.28;0.60;;;;;;;3.92;100.00;100963.16;5070496;28;20045;-35
2021/12/03 00:38:27;;;;;;;6.95;1.15;;;;;;;3.94;99.97;100958.22;5070129;28;20048;-31
2021/12/03 00:40:54;;;;;;;5.28;0.60;;;;;;;3.95;99.85;100961.81;5070521;28;20045;-35
2021/12/03 00:43:22;;;;;;;7.20;0.80;;;;;;;3.96;99.65;100957.97;5071831;28;20394;-37
2021/12/03 00:45:51;;;;;;;4.88;0.50;;;;;;;3.98;99.30;100966.81;5073722;28;20053;-29
2021/12/03 00:48:19;;;;;;;3.35;0.70;;;;;;;4.01;98.93;100958.00;5074367;28;20049;-41
2021/12/03 00:50:47;;;;;;;3.17;0.52;;;;;;;4.02;98.72;100948.63;5073334;28;20044;-35
2021/12/03 00:53:16;;;;;;;8.90;1.02;;;;;;;4.06;98.63;100958.09;5074273;28;20067;-36
2021/12/03 00:55:44;;;;;;;5.97;0.60;;;;;;;4.07;98.65;100952.31;5073690;28;20059;-30
2021/12/03 00:58:12;;;;;;;7.85;1.15;;;;;;;4.12;98.63;100951.56;5073581;28;20044;-32
2021/12/03 01:00:40;;;;;;;6.32;0.80;;;;;;;4.16;98.65;100941.69;5073623;28;20053;-36
2021/12/03 01:03:08;;;;;;;6.05;0.80;;;;;;;4.19;98.35;100935.66;5073524;28;20611;-33
2021/12/03 01:05:36;;;;;;;4.95;0.90;;;;;;;4.23;97.96;100938.72;5073124;28;20048;-36
2021/12/03 01:08:04;;;;;;;7.90;1.10;;;;;;;4.26;97.28;100930.75;5073416;28;20074;-36
2021/12/03 01:10:34;;;;;;;10.38;0.98;;;;;;;4.34;97.14;100927.56;5073422;28;20485;-31
2021/12/03 01:13:02;;;;;;;6.75;0.82;;;;;;;4.41;96.66;100946.69;5073207;28;20053;-33
2021/12/03 01:15:33;;;;;;;7.07;0.80;;;;;;;4.46;96.89;100941.25;5073544;28;20045;-38
2021/12/03 01:18:01;;;;;;;5.50;1.10;;;;;;;4.48;96.89;100934.38;5073610;28;20071;-28
2021/12/03 01:20:30;;;;;;;4.70;0.80;;;;;;;4.51;96.48;100935.78;5072672;28;20037;-35
2021/12/03 01:22:59;;;;;;;6.82;0.70;;;;;;;4.56;95.78;100932.25;5073484;28;20453;-30
2021/12/03 01:25:28;;;;;;;8.00;0.80;;;;;;;4.57;95.54;100925.66;5073223;28;20409;-28
2021/12/03 01:27:58;;;;;;;5.38;0.68;;;;;;;4.64;95.63;100932.63;5072747;28;20047;-31
2021/12/03 01:30:28;;;;;;;5.55;0.88;;;;;;;4.67;95.41;100925.75;5073255;28;20040;-34
2021/12/03 01:32:57;;;;;;;7.07;0.80;;;;;;;4.72;95.75;100925.81;5072613;28;20036;-28
2021/12/03 01:35:26;;;;;;;6.78;0.85;;;;;;;4.76;95.55;100925.03;5073689;28;20067;-35
2021/12/03 01:37:54;;;;;;;5.35;0.60;;;;;;;4.83;94.51;100939.47;5073267;28;20079;-35
2021/12/03 01:40:27;;;;;;;5.35;0.80;;;;;;;4.93;93.74;100924.13;5072668;28;20404;-32
2021/12/03 01:42:55;;;;;;;5.50;0.70;;;;;;;5.00;92.55;100916.44;5073131;28;20405;-35
2021/12/03 01:45:26;;;;;;;3.85;0.60;;;;;;;5.04;92.11;100923.94;5072859;28;20047;-33
2021/12/03 01:47:55;;;;;;;4.50;0.60;;;;;;;5.05;92.11;100913.72;5072607;28;20097;-33
2021/12/03 01:50:25;;;;;;;5.72;0.77;;;;;;;5.07;91.61;100915.13;5073241;28;20036;-33
2021/12/03 01:52:53;;;;;;;5.97;0.60;;;;;;;5.08;91.27;100910.44;5072623;28;20063;-32
2021/12/03 01:55:22;;;;;;;5.32;0.60;;;;;;;5.11;90.99;100907.16;5060177;28;20143;-35
2021/12/03 01:57:50;;;;;;;4.60;0.60;;;;;;;5.16;90.70;100909.97;5072629;28;20378;-36
2021/12/03 02:00:22;;;;;;;4.60;0.47;;;;;;;5.19;90.95;100913.06;5072652;28;20055;-36
2021/12/03 02:02:51;;;;;;;7.13;0.83;;;;;;;5.25;89.78;100921.38;5072010;28;20144;-36
2021/12/03 02:05:19;;;;;;;7.07;0.68;;;;;;;5.28;89.62;100918.09;5073038;28;20438;-36
2021/12/03 02:07:47;;;;;;;5.65;0.95;;;;;;;5.32;90.58;100919.25;5072512;28;20147;-31
2021/12/03 02:10:17;;;;;;;5.57;1.05;;;;;;;5.34;89.13;100926.19;5072228;28;20067;-34
2021/12/03 02:12:45;;;;;;;3.65;0.60;;;;;;;5.35;88.82;100915.94;5072566;28;20047;-37
2021/12/03 02:15:13;;;;;;;2.05;0.38;;;;;;;5.33;89.77;100907.06;5071706;28;20049;-35
2021/12/03 02:17:42;;;;;;;2.83;0.30;;;;;;;5.29;90.34;100905.94;5072664;28;20048;-33
2021/12/03 02:20:13;;;;;;;4.43;0.50;;;;;;;5.22;91.31;100908.06;5072085;28;20045;-29
2021/12/03 02:22:43;;;;;;;5.30;0.52;;;;;;;5.12;91.40;100908.81;5071927;28;20123;-30
2021/12/03 02:25:14;;;;;;;4.15;0.70;;;;;;;5.08;91.76;100904.91;5072061;28;20095;-34
2021/12/03 02:27:42;;;;;;;9.15;0.80;;;;;;;5.09;93.36;100906.56;5072333;28;20135;-35
2021/12/03 02:30:11;;;;;;;5.40;0.93;;;;;;;5.13;94.29;100911.31;5071511;28;20048;-32
2021/12/03 02:32:39;;;;;;;7.07;0.90;;;;;;;5.19;95.02;100909.44;5072060;28;20052;-31
2021/12/03 02:35:08;;;;;;;5.97;0.55;;;;;;;5.24;94.82;100914.16;5072054;28;20047;-35
2021/12/03 02:37:36;;;;;;;6.30;0.93;;;;;;;5.30;94.21;100916.72;5071393;28;20131;-28
2021/12/03 02:40:07;;;;;;;5.53;0.70;;;;;;;5.34;94.19;100914.28;5072196;28;20044;-33
2021/12/03 02:42:35;;;;;;;2.60;0.40;;;;;;;5.36;94.06;100901.03;5072011;28;20963;-32
2021/12/03 02:45:04;;;;;;;5.45;0.50;;;;;;;5.36;93.61;100909.31;5071431;28;20044;-34
2021/12/03 02:47:32;;;;;;;4.70;0.85;;;;;;;5.37;93.68;100899.91;5071856;28;20134;-34
2021/12/03 02:50:00;;;;;;;5.72;0.80;;;;;;;5.37;93.88;100888.84;5067976;28;20127;-32
2021/12/03 02:52:28;;;;;;;5.38;0.95;;;;;;;5.39;93.51;100886.66;5071810;28;20053;-32
2021/12/03 02:54:55;;;;;;;5.50;0.60;;;;;;;5.42;92.88;100884.19;5071379;28;20056;-34
2021/12/03 02:57:26;;;;;;;5.75;0.85;;;;;;;5.48;91.56;100868.44;5071238;28;20048;-33
2021/12/03 02:59:54;;;;;;;6.40;0.57;;;;;;;5.48;89.97;100874.00;5071754;28;20048;-36
2021/12/03 03:02:22;;;;;;;6.63;0.80;;;;;;;5.50;89.67;100877.31;5070133;28;20488;-30
2021/12/03 03:04:53;;;;;;;3.67;0.50;;;;;;;5.48;89.32;100874.81;5071161;28;20059;-29
2021/12/03 03:07:21;;;;;;;2.97;0.50;;;;;;;5.51;89.29;100867.94;5067985;28;20040;-38
2021/12/03 03:09:49;;;;;;;3.67;0.50;;;;;;;5.51;89.02;100845.78;5071419;28;20139;-34
2021/12/03 03:12:18;;;;;;;6.82;0.88;;;;;;;5.56;88.84;100854.13;5070587;28;20048;-30
2021/12/03 03:14:51;;;;;;;3.55;0.70;;;;;;;5.59;87.53;100845.31;5071427;28;20044;-32
2021/12/03 03:17:20;;;;;;;5.95;0.82;;;;;;;5.66;86.82;100843.13;5071169;28;20176;-32
2021/12/03 03:19:48;;;;;;;6.60;0.80;;;;;;;5.66;86.83;100853.34;5070549;28;20041;-37
2021/12/03 03:22:16;;;;;;;6.97;0.52;;;;;;;5.61;86.70;100837.53;5071382;28;20139;-37
2021/12/03 03:24:44;;;;;;;5.38;0.70;;;;;;;5.62;86.36;100839.19;5071408;28;20135;-31
2021/12/03 03:27:13;;;;;;;5.28;0.70;;;;;;;5.62;84.98;100832.84;5070824;28;20139;-34
2021/12/03 03:29:43;;;;;;;4.97;0.60;;;;;;;5.61;84.25;100837.53;5070833;28;20055;-36
2021/12/03 03:32:13;;;;;;;5.43;0.60;;;;;;;5.65;84.69;100833.13;5071407;28;20052;-37
2021/12/03 03:34:41;;;;;;;2.75;0.43;;;;;;;5.68;84.87;100832.59;5071033;28;20409;-31
2021/12/03 03:37:09;;;;;;;8.35;0.80;;;;;;;5.68;85.39;100829.84;5071043;28;20048;-32
2021/12/03 03:39:37;;;;;;;6.57;0.70;;;;;;;5.73;85.11;100831.81;5070510;28;20488;-31
2021/12/03 03:42:06;;;;;;;5.53;1.02;;;;;;;5.76;85.26;100826.56;5070721;28;20089;-32
2021/12/03 03:44:35;;;;;;;4.85;0.75;;;;;;;5.76;87.56;100826.56;5071222;28;20056;-37
2021/12/03 03:47:04;;;;;;;4.85;0.90;;;;;;;5.76;87.77;100836.81;5070610;28;20056;-33
2021/12/03 03:49:35;;;;;;;7.55;0.73;;;;;;;5.72;88.54;100838.44;5070881;28;20044;-38
2021/12/03 03:52:05;;;;;;;4.65;0.77;;;;;;;5.66;89.30;100836.75;5070823;28;20127;-37
2021/12/03 03:54:32;;;;;;;5.93;0.93;;;;;;;5.71;89.50;100831.25;5070349;28;20486;-37
2021/12/03 03:57:01;;;;;;;5.45;0.88;;;;;;;5.69;90.84;100831.50;5070660;28;20476;-33
2021/12/03 03:59:29;;;;;;;6.30;1.00;;;;;;;5.71;89.91;100820.16;5059935;28;20390;-28
2021/12/03 04:01:57;;;;;;;8.07;0.82;;;;;;;5.75;89.85;100824.06;5070259;28;20060;-35
2021/12/03 04:04:25;;;;;;;8.18;0.90;;;;;;;5.75;90.23;100822.16;5071008;28;20063;-36
2021/12/03 04:06:54;;;;;;;7.18;1.00;;;;;;;5.76;91.32;100811.91;5070642;28;20052;-30
2021/12/03 04:09:22;;;;;;;6.78;0.90;;;;;;;5.76;92.22;100811.91;5066425;28;20041;-30
2021/12/03 04:11:50;;;;;;;10.18;1.10;;;;;;;5.80;92.30;100810.25;5070796;28;20040;-31
2021/12/03 04:14:18;;;;;;;8.65;1.15;;;;;;;5.82;92.91;100802.50;5070545;28;20041;-32
2021/12/03 04:16:46;;;;;;;7.30;1.25;;;;;;;5.85;93.23;100796.44;5070066;28;20044;-34
2021/12/03 04:19:13;;;;;;;8.77;1.13;;;;;;;5.88;94.02;100793.13;5073256;28;20048;-32
2021/12/03 04:21:41;;;;;;;9.05;1.30;;;;;;;5.89;93.89;100780.97;5073995;28;20048;-36
2021/12/03 04:24:10;;;;;;;7.68;1.10;;;;;;;5.91;93.61;100781.53;5074684;28;20049;-34
2021/12/03 04:26:38;;;;;;;10.73;1.35;;;;;;;5.97;93.40;100777.69;5074668;28;20139;-32
2021/12/03 04:29:06;;;;;;;6.57;1.15;;;;;;;6.01;92.55;100773.25;5073999;28;20059;-38
2021/12/03 04:31:33;;;;;;;8.18;1.20;;;;;;;6.05;93.17;100781.88;5074421;28;20055;-37
2021/12/03 04:34:01;;;;;;;6.90;1.55;;;;;;;6.05;92.43;100779.09;5074215;28;20086;-29
2021/12/03 04:36:29;;;;;;;8.77;1.20;;;;;;;6.05;91.36;100784.63;5073666;28;20036;-37
2021/12/03 04:38:57;;;;;;;6.05;1.33;;;;;;;6.07;92.02;100776.88;5074426;28;20052;-36
2021/12/03 04:41:26;;;;;;;6.82;1.45;;;;;;;6.07;91.83;100772.19;5072969;28;20064;-28
2021/12/03 04:43:54;;;;;;;8.48;1.70;;;;;;;6.06;92.05;100775.22;5073584;28;20051;-31
2021/12/03 04:46:22;;;;;;;7.72;1.25;;;;;;;6.03;91.41;100765.50;5074188;28;20048;-37
2021/12/03 04:48:50;;;;;;;7.38;1.23;;;;;;;6.04;91.34;100771.88;5072781;28;20124;-32
2021/12/03 04:51:18;;;;;;;9.57;1.08;;;;;;;6.06;91.24;100772.44;5073771;28;20064;-32
2021/12/03 04:53:46;;;;;;;8.98;1.30;;;;;;;6.05;91.07;100779.09;5074028;28;20040;-35
2021/12/03 04:56:14;;;;;;;7.63;1.08;;;;;;;6.05;90.59;100762.47;5074150;28;20448;-30
2021/12/03 04:58:43;;;;;;;8.30;1.20;;;;;;;6.02;90.56;100763.84;5073012;28;20051;-39
2021/12/03 05:01:11;;;;;;;7.30;1.23;;;;;;;6.01;90.43;100756.63;5073498;28;20497;-39
2021/12/03 05:03:39;;;;;;;8.02;1.25;;;;;;;6.02;90.46;100754.69;5073525;28;20064;-31
2021/12/03 05:06:09;;;;;;;6.57;1.25;;;;;;;6.01;88.79;100750.28;5072535;28;20509;-34
2021/12/03 05:08:37;;;;;;;7.57;1.08;;;;;;;5.99;88.84;100758.88;5074106;28;20044;-35
2021/12/03 05:11:05;;;;;;;7.85;1.80;;;;;;;5.99;88.84;100753.34;5073067;28;20467;-33
2021/12/03 05:13:35;;;;;;;7.00;1.10;;;;;;;6.00;88.94;100745.84;5073479;28;20052;-33
2021/12/03 05:16:05;;;;;;;8.70;1.55;;;;;;;6.02;88.28;100738.09;5073478;28;20055;-35
2021/12/03 05:18:33;;;;;;;8.52;1.23;;;;;;;6.03;88.49;100753.59;5073016;28;20497;-33
2021/12/03 05:21:03;;;;;;;9.15;1.17;;;;;;;6.01;89.06;100747.50;5073307;28;20456;-36
2021/12/03 05:23:33;;;;;;;6.72;1.10;;;;;;;5.99;86.74;100735.88;5072254;28;20052;-35
2021/12/03 05:26:00;;;;;;;6.90;1.05;;;;;;;6.01;85.67;100736.41;5071036;28;20386;-30
2021/12/03 05:28:29;;;;;;;8.10;1.15;;;;;;;6.03;87.07;100736.97;5072227;28;20417;-35
2021/12/03 05:30:58;;;;;;;6.90;0.90;;;;;;;6.02;85.77;100735.31;5073014;28;20051;-34
2021/12/03 05:33:28;;;;;;;9.93;1.70;;;;;;;6.05;86.42;100732.00;5072473;28;20044;-38
2021/12/03 05:35:55;;;;;;;9.70;1.42;;;;;;;6.03;85.85;100732.28;5072789;28;20143;-36
2021/12/03 05:38:23;;;;;;;9.00;1.00;;;;;;;6.05;85.28;100718.16;5073036;28;20060;-33
2021/12/03 05:40:52;;;;;;;6.18;0.93;;;;;;;6.04;84.50;100708.19;5072029;28;20089;-37
2021/12/03 05:43:20;;;;;;;5.35;1.55;;;;;;;6.04;85.03;100724.81;5073108;28;20509;-34
2021/12/03 05:45:48;;;;;;;11.35;1.50;;;;;;;6.03;84.16;100725.91;5073036;28;20052;-36
2021/12/03 05:48:16;;;;;;;9.10;1.20;;;;;;;6.03;84.66;100725.91;5072718;28;20045;-33
2021/12/03 05:50:47;;;;;;;10.27;1.27;;;;;;;6.02;85.12;100729.78;5072843;28;20402;-33
2021/12/03 05:53:15;;;;;;;9.00;1.42;;;;;;;6.00;84.23;100731.97;5071259;28;20055;-31
2021/12/03 05:55:44;;;;;;;6.32;1.00;;;;;;;6.02;84.87;100729.78;5073124;28;20392;-34
2021/12/03 05:58:12;;;;;;;8.25;1.20;;;;;;;6.00;84.65;100720.91;5071542;28;20049;-28
2021/12/03 06:00:42;;;;;;;9.80;1.48;;;;;;;6.01;85.02;100717.03;5072264;28;20036;-38
2021/12/03 06:03:10;;;;;;;7.95;1.30;;;;;;;6.00;85.57;100709.81;5069010;28;20119;-37
2021/12/03 06:05:40;;;;;;;7.70;1.10;;;;;;;5.99;85.22;100708.19;5072569;28;20079;-33
2021/12/03 06:08:10;;;;;;;8.38;1.25;;;;;;;6.01;86.13;100722.56;5071406;28;20094;-35
2021/12/03 06:10:38;;;;;;;8.43;1.15;;;;;;;6.01;85.26;100722.56;5072760;28;20044;-31
2021/12/03 06:13:06;;;;;;;10.23;1.33;;;;;;;6.02;85.36;100732.53;5072310;28;20423;-30
2021/12/03 06:15:34;;;;;;;10.35;1.40;;;;;;;5.99;85.54;100727.56;5071918;28;20054;-29
2021/12/03 06:18:02;;;;;;;8.70;1.00;;;;;;;5.93;83.56;100720.34;5072290;28;20082;-41
2021/12/03 06:20:30;;;;;;;11.73;1.92;;;;;;;5.93;82.96;100709.28;5061197;28;20527;-36
2021/12/03 06:22:58;;;;;;;7.70;1.52;;;;;;;5.92;84.55;100716.75;5071834;28;20049;-32
2021/12/03 06:25:27;;;;;;;9.23;1.30;;;;;;;5.95;85.26;100718.13;5072159;28;20040;-32
2021/12/03 06:27:57;;;;;;;8.52;1.30;;;;;;;5.89;85.06;100714.50;5072177;28;20076;-31
2021/12/03 06:30:26;;;;;;;8.07;1.17;;;;;;;5.88;84.24;100708.16;5071595;28;20144;-29
2021/12/03 06:32:54;;;;;;;7.20;1.23;;;;;;;5.83;82.49;100699.78;5071986;28;20040;-32
2021/12/03 06:35:22;;;;;;;7.38;1.58;;;;;;;5.87;82.73;100702.84;5071561;28;20036;-32
2021/12/03 06:37:51;;;;;;;12.50;1.70;;;;;;;5.85;83.86;100694.81;5072154;28;20505;-33
2021/12/03 06:40:20;;;;;;;11.15;1.90;;;;;;;5.83;84.11;100698.94;5071778;28;20056;-28
2021/12/03 06:42:50;;;;;;;12.77;1.75;;;;;;;5.82;84.01;100706.41;5070873;28;20059;-29
2021/12/03 06:45:19;;;;;;;10.30;1.95;;;;;;;5.78;82.52;100690.66;5071802;28;20055;-34
2021/12/03 06:47:47;;;;;;;8.30;1.35;;;;;;;5.74;82.49;100682.03;5071653;28;20044;-31
2021/12/03 06:50:20;;;;;;;10.32;1.40;;;;;;;5.74;82.38;100679.28;5069741;28;20123;-34
2021/12/03 06:52:53;;;;;;;10.50;1.67;;;;;;;5.77;83.04;100684.28;5071410;28;20060;-32
2021/12/03 06:55:21;;;;;;;7.97;1.20;;;;;;;5.74;82.26;100684.81;5060984;28;20048;-34
2021/12/03 06:57:51;;;;;;;7.10;1.30;;;;;;;5.72;79.38;100687.03;5070596;28;20052;-33
2021/12/03 07:00:19;;;;;;;7.70;1.35;;;;;;;5.70;78.51;100689.22;5071630;28;20055;-34
2021/12/03 07:02:46;;;;;;;8.48;1.38;;;;;;;5.67;78.58;100684.22;5071292;28;20058;-30
2021/12/03 07:05:14;;;;;;;5.45;1.08;;;;;;;5.67;78.21;100692.53;5067730;28;20055;-35
2021/12/03 07:07:42;;;;;;;6.63;1.40;;;;;;;5.64;76.80;100684.75;5071559;28;20500;-33
2021/12/03 07:10:10;;;;;;;8.48;1.13;;;;;;;5.64;76.29;100683.94;5071762;28;20072;-34
2021/12/03 07:12:38;;;;;;;8.35;1.50;;;;;;;5.66;76.66;100687.25;5070772;28;20045;-33
2021/12/03 07:15:08;;;;;;;8.35;1.38;;;;;;;5.63;76.18;100685.88;5071234;28;20482;-37
2021/12/03 07:17:36;;;;;;;5.50;1.10;;;;;;;5.66;76.87;100678.97;5069714;28;20055;-35
2021/12/03 07:20:06;;;;;;;7.45;1.17;;;;;;;5.63;77.61;100683.09;5070257;28;20048;-38
2021/12/03 07:22:35;;;;;;;8.88;1.30;;;;;;;5.64;78.05;100673.69;5059698;28;20051;-35
2021/12/03 07:25:04;;;;;;;7.32;1.17;;;;;;;5.63;78.30;100669.25;5069514;28;20523;-36
2021/12/03 07:27:32;;;;;;;8.05;1.17;;;;;;;5.67;78.88;100673.16;5069833;28;20051;-39
2021/12/03 07:30:00;;;;;;;8.45;1.20;;;;;;;5.68;79.45;100666.50;5069952;28;20052;-35
2021/12/03 07:32:30;;;;;;;14.00;1.95;;;;;;;5.69;80.25;100659.88;5069224;28;20454;-34
2021/12/03 07:34:59;;;;;;;11.70;1.70;;;;;;;5.71;79.95;100657.66;5060937;28;20080;-34
2021/12/03 07:37:27;;;;;;;7.78;1.33;;;;;;;5.67;77.77;100653.78;5069420;28;20044;-38
2021/12/03 07:39:54;;;;;;;11.40;1.70;;;;;;;5.71;77.97;100652.13;5068661;28;20470;-34
2021/12/03 07:42:22;;;;;;;9.00;1.50;;;;;;;5.74;77.63;100640.53;5069276;28;20056;-36
2021/12/03 07:44:50;;;;;;;7.35;1.10;;;;;;;5.74;78.38;100646.06;5065319;28;20044;-31
2021/12/03 07:47:17;;;;;;;6.28;0.90;;;;;;;5.77;76.62;100633.59;5069411;28;20059;-38
2021/12/03 07:49:48;;;;;;;12.23;2.22;;;;;;;5.81;77.77;100635.53;5069440;28;20040;-37
2021/12/03 07:52:18;;;;;;;9.93;1.33;;;;;;;5.82;78.79;100625.28;5056702;28;20040;-33
2021/12/03 07:54:46;;;;;;;11.57;1.42;;;;;;;5.77;78.16;100622.53;5068846;28;20123;-36
2021/12/03 07:57:14;;;;;;;7.82;1.60;;;;;;;5.80;79.05;100606.19;5069988;28;20160;-37
2021/12/03 07:59:42;;;;;;;10.48;1.35;;;;;;;5.84;78.58;100606.47;5069230;28;20071;-37
2021/12/03 08:02:10;;;;;;;9.98;1.60;;;;;;;5.86;79.26;100615.34;5066217;28;20486;-36
2021/12/03 08:04:38;;;;;;;6.28;1.17;;;;;;;5.88;79.02;100602.91;5069176;28;20099;-34
2021/12/03 08:07:08;;;;;;;9.45;1.60;;;;;;;5.91;78.28;100606.25;5068848;28;20045;-30
2021/12/03 08:09:37;;;;;;;8.18;1.52;;;;;;;5.87;77.95;100608.69;5069668;28;20440;-36
2021/12/03 08:12:06;;;;;;;9.68;1.50;;;;;;;5.87;75.71;100587.38;5069572;28;20049;-29
2021/12/03 08:14:34;;;;;;;10.98;1.55;;;;;;;5.88;75.32;100585.44;5069029;28;20075;-36
2021/12/03 08:17:02;;;;;;;11.32;1.42;;;;;;;5.96;76.02;100584.09;5069224;28;20052;-37
2021/12/03 08:19:30;;;;;;;8.48;2.13;;;;;;;5.91;74.45;100600.72;5069627;28;20084;-33
2021/12/03 08:21:57;;;;;;;7.13;1.60;;;;;;;5.94;74.76;100594.63;5069044;28;20044;-35
2021/12/03 08:24:26;;;;;;;10.13;1.83;;;;;;;5.98;76.08;100585.50;5069317;28;20056;-34
2021/12/03 08:26:54;;;;;;;9.68;1.60;;;;;;;5.98;77.19;100588.25;5069517;28;20056;-34
2021/12/03 08:29:22;;;;;;;7.82;1.63;;;;;;;5.98;80.46;100582.72;5068674;28;20416;-34
2021/12/03 08:31:50;;;;;;;9.00;1.00;;;;;;;5.97;83.50;100599.63;5069147;28;20046;-36
2021/12/03 08:34:18;;;;;;;6.30;1.27;;;;;;;5.90;85.12;100594.34;5069523;28;20160;-36
2021/12/03 08:36:45;;;;;;;6.80;1.42;;;;;;;5.83;88.13;100591.78;5068712;28;20508;-40
2021/12/03 08:39:13;;;;;;;7.18;1.45;;;;;;;5.78;89.23;100602.88;5069440;28;20418;-28
2021/12/03 08:41:42;;;;;;;9.50;1.80;;;;;;;5.76;87.92;100591.25;5068781;28;20409;-32
2021/12/03 08:44:10;;;;;;;9.70;1.80;;;;;;;5.75;87.94;100581.28;5069267;28;20045;-39
2021/12/03 08:46:39;;;;;;;10.25;1.85;;;;;;;5.78;86.06;100605.66;5069289;28;20053;-32
2021/12/03 08:49:15;;;;;;;9.80;1.42;;;;;;;5.78;87.00;100591.81;5069105;28;20052;-36
2021/12/03 08:51:58;;;;;;;9.55;1.50;;;;;;;5.77;89.19;100581.84;5068765;28;20037;-32
2021/12/03 08:57:13;;;;;;;8.63;1.30;;;;;;;5.70;91.48;100575.72;5068245;28;20481;-30
2021/12/03 08:59:40;;;;;;;9.65;1.58;;;;;;;5.75;93.04;100574.91;5069375;28;20056;-31
2021/12/03 09:02:08;;;;;;;6.93;1.52;;;;;;;5.71;94.80;100576.56;5069267;28;20044;-32
2021/12/03 09:04:37;;;;;;;11.88;1.30;;;;;;;5.66;95.75;100560.75;5069747;28;20088;-35
2021/12/03 09:07:05;;;;;;;9.85;1.20;;;;;;;5.60;97.04;100561.84;5072346;28;20044;-35
2021/12/03 09:09:33;;;;;;;9.52;1.25;;;;;;;5.61;98.77;100538.59;5072853;28;20078;-35
2021/12/03 09:12:01;;;;;;;7.95;1.30;;;;;;;5.65;99.05;100541.66;5071933;28;20052;-31
2021/12/03 09:14:36;;;;;;;13.85;1.63;;;;;;;5.66;100.00;100551.63;5072703;28;20040;-29
2021/12/03 09:17:16;;;;;;;8.93;1.60;;;;;;;5.68;100.00;100532.81;5072504;28;20130;-30
2021/12/03 09:19:51;;;;;;;8.30;1.33;;;;;;;5.71;100.00;100527.56;5070143;28;20044;-38
2021/12/03 09:22:27;;;;;;;9.90;1.90;;;;;;;5.71;100.00;100508.19;5073501;28;20045;-31
2021/12/03 09:24:55;;;;;;;13.43;1.70;;;;;;;5.75;100.00;100516.78;5069724;28;20390;-30
2021/12/03 09:27:23;;;;;;;13.75;2.20;;;;;;;5.74;100.00;100513.16;5073421;28;20472;-33
2021/12/03 09:29:54;;;;;;;4.95;1.00;;;;;;;5.71;100.00;100529.50;5073014;28;20049;-31
2021/12/03 09:32:25;;;;;;;7.43;1.20;;;;;;;5.75;100.00;100509.28;5073083;28;20093;-33
2021/12/03 09:34:53;;;;;;;8.88;1.60;;;;;;;5.76;100.00;100499.88;5073309;28;20048;-34
2021/12/03 09:37:21;;;;;;;10.98;1.50;;;;;;;5.79;100.00;100506.81;5073518;28;20037;-32
2021/12/03 09:39:49;;;;;;;11.95;1.67;;;;;;;5.83;100.00;100494.88;5072433;28;20044;-31
2021/12/03 09:42:20;;;;;;;9.50;1.30;;;;;;;5.85;100.00;100500.97;5071857;28;20413;-36
2021/12/03 09:44:50;;;;;;;10.57;1.85;;;;;;;5.90;100.00;100504.91;5072423;28;20056;-31
2021/12/03 09:47:20;;;;;;;9.20;1.30;;;;;;;5.91;100.00;100501.84;5072384;28;20045;-33
2021/12/03 09:49:53;;;;;;;12.85;1.65;;;;;;;5.91;100.00;100488.00;5073209;28;20045;-33
2021/12/03 09:52:27;;;;;;;10.30;1.55;;;;;;;5.91;100.00;100489.94;5072386;28;20454;-36
2021/12/03 09:54:59;;;;;;;12.60;1.60;;;;;;;5.95;100.00;100480.81;5072993;28;20052;-37
2021/12/03 09:57:34;;;;;;;11.83;1.60;;;;;;;5.98;100.00;100474.72;5072883;28;20048;-36
2021/12/03 10:15:03;;;;;;;9.65;0.98;;;;;;;6.03;100.00;100452.53;5048927;28;20056;-30
2021/12/03 10:20:31;;;;;;;10.37;1.50;;;;;;;6.14;100.00;100453.38;5070054;28;20413;-35
2021/12/03 10:23:48;;;;;;;6.90;1.15;;;;;;;6.17;100.00;100437.00;5072523;28;20062;-37
2021/12/03 10:29:26;;;;;;;7.57;1.40;;;;;;;6.13;100.00;100421.22;5064123;28;20052;-32
2021/12/03 10:32:27;;;;;;;12.23;1.88;;;;;;;6.18;100.00;100424.81;5071955;28;20036;-38
2021/12/03 10:35:24;;;;;;;11.85;1.55;;;;;;;6.25;100.00;100404.28;5068900;28;20052;-37
2021/12/03 10:46:47;;;;;;;10.23;2.00;;;;;;;6.06;100.00;100410.44;5060751;28;20062;-33
2021/12/03 10:49:28;;;;;;;11.98;1.65;;;;;;;5.98;100.00;100405.47;5071094;28;20508;-40
2021/12/03 10:52:07;;;;;;;6.95;1.40;;;;;;;5.90;100.00;100402.44;5072003;28;20040;-38
2021/12/03 10:55:00;;;;;;;5.80;1.20;;;;;;;5.84;100.00;100402.41;5071890;28;20043;-34
2021/12/03 10:57:57;;;;;;;8.52;1.63;;;;;;;5.74;100.00;100371.97;5070726;28;20053;-37
2021/12/03 11:12:14;;;;;;;8.73;1.90;;;;;;;5.77;100.00;100346.50;5070697;28;20127;-32
2021/12/03 11:29:10;;;;;;;15.82;2.30;;;;;;;5.91;100.00;100313.56;5070498;28;20047;-37
2021/12/03 11:33:41;;;;;;;12.63;2.75;;;;;;;6.00;100.00;100295.22;5070435;28;20135;-33
2021/12/03 13:19:52;;;;;;;19.20;3.10;;;;;;;5.97;100.00;100151.81;5073311;28;20489;-39
2021/12/03 13:22:57;;;;;;;14.57;2.40;;;;;;;5.92;100.00;100160.16;5073458;28;20049;-31
2021/12/03 14:05:13;;;;;;;15.55;2.47;;;;;;;6.17;100.00;100170.25;5042825;28;20144;-35
2021/12/03 14:11:26;;;;;;;13.60;2.78;;;;;;;6.19;100.00;100170.78;5027640;28;20068;-30
2021/12/03 14:39:58;;;;;;;14.85;2.25;;;;;;;6.53;100.00;100149.47;5068831;28;20131;-34
2021/12/03 14:42:50;;;;;;;15.90;2.22;;;;;;;6.58;100.00;100168.00;5058007;28;20401;-36
2021/12/03 14:45:33;;;;;;;20.50;2.50;;;;;;;6.72;100.00;100159.84;5070149;28;20036;-40
2021/12/03 14:51:02;;;;;;;13.15;1.75;;;;;;;7.00;100.00;100141.53;5070503;28;20493;-31
2021/12/03 14:53:55;;;;;;;9.75;1.30;;;;;;;7.10;100.00;100153.38;5070111;28;20052;-37
2021/12/03 14:56:26;;;;;;;13.25;1.38;;;;;;;7.18;100.00;100152.72;5059463;28;20059;-36
2021/12/03 14:59:08;;;;;;;14.32;1.60;;;;;;;7.26;100.00;100137.38;5068913;28;20490;-37
2021/12/03 15:01:44;;;;;;;;;;;;;;;7.25;100.00;100139.31;5059782;28;20126;-29
2021/12/03 15:04:33;;;;;;;15.75;1.58;;;;;;;7.25;100.00;100131.00;5069845;28;19920;-33
2021/12/03 15:07:11;;;;;;;10.65;1.65;;;;;;;7.31;100.00;100142.88;5070037;28;20390;-31
2021/12/03 15:09:41;;;;;;;12.18;1.63;;;;;;;7.33;100.00;100139.81;5066093;28;20037;-36
2021/12/03 15:12:36;;;;;;;10.40;1.50;;;;;;;7.34;100.00;100139.50;5069492;28;20498;-31
2021/12/03 15:26:35;;;;;;;14.57;1.90;;;;;;;7.39;100.00;100135.84;5068246;28;20059;-31
2021/12/03 15:31:58;;;;;;;11.45;1.80;;;;;;;7.43;100.00;100128.56;5069459;28;20057;-30
2021/12/03 15:37:43;;;;;;;16.80;1.90;;;;;;;7.43;100.00;100137.72;5068341;28;20055;-31
2021/12/03 15:54:42;;;;;;;10.13;1.60;;;;;;;7.47;100.00;100127.69;5070076;28;20452;-38
2021/12/03 15:57:32;;;;;;;10.25;1.80;;;;;;;7.44;100.00;100119.94;5069795;28;20044;-36
2021/12/03 16:08:22;;;;;;;11.52;2.15;;;;;;;7.45;100.00;100129.09;5069195;28;20128;-33
2021/12/03 16:10:58;;;;;;;9.55;1.80;;;;;;;7.47;100.00;100126.84;5069651;28;20060;-34
2021/12/03 16:13:42;;;;;;;15.30;2.05;;;;;;;7.47;100.00;100129.63;5068848;28;20058;-35
2021/12/03 16:19:04;;;;;;;13.88;2.92;;;;;;;7.48;100.00;100136.84;5072195;28;20087;-35
2021/12/03 16:21:43;;;;;;;12.27;2.45;;;;;;;7.48;100.00;100134.06;5073389;28;20173;-38
2021/12/03 16:24:45;;;;;;;10.00;2.85;;;;;;;7.47;100.00;100141.56;5073733;28;20074;-30